Impacts TAF Board
For situational awareness. Not to be used for flight planning purposes.
IDs:

KPRC - Prescott/Love Fld, AZ, US

Issued at 1720 UTC 01 Feb 2023
Updated at 2316 UTC 01 Feb 2023
Potential Impact None Slight Moderate High
Time2253Z 02/00Z 02/01Z 02/02Z 02/03Z 02/04Z 02/05Z 02/06Z 02/07Z 02/08Z 02/09Z 02/10Z 02/11Z 02/12Z>>
Type OBS PRVL PRVL PRVL PRVL PRVL PRVL PRVL PRVL PRVL PRVL PRVL PRVL PRVL
VIS 10 >6 >6 >6 >6 >6 >6 >6 >6 >6 >6 >6 >6 >6
CIG -- -- -- -- -- -- -- -- -- -- -- -- -- --
Cover CLR SKC SKC SKC SKC SKC SKC SKC SKC SKC SKC SKC SKC SKC
FltCat VFR VFR VFR VFR VFR VFR VFR VFR VFR VFR VFR VFR VFR VFR
WX -- -- -- -- -- -- -- -- -- -- -- -- -- --
WDir 350 360 360 360 210 210 210 210 210 210 210 210 210 210
WSpd 8 8 8 8 5 5 5 5 5 5 5 5 5 5
WGst -- -- -- -- -- -- -- -- -- -- -- -- -- --
WSHgt -- -- -- -- -- -- -- -- -- -- -- -- -- --
WSDir -- -- -- -- -- -- -- -- -- -- -- -- -- --
WSSpd -- -- -- -- -- -- -- -- -- -- -- -- -- --
R03/21
XWnd 6 5 5 5 -1 -1 -1 -1 -1 -1 -1 -1 -1 -1
HWnd 5 6 6 6 -5 -5 -5 -5 -5 -5 -5 -5 -5 -5
R12/30
XWnd 4 5 5 5 -5 -5 -5 -5 -5 -5 -5 -5 -5 -5
HWnd -7 -6 -6 -6 1 1 1 1 1 1 1 1 1 1

NOTE: LAMP data beyond the time of the TAF data is denoted as LAMP in Type and colored magenta.

Raw TAF
KPRC 011720Z 0118/0218 30006KT P6SM SKC
  FM011900 36008KT P6SM SKC
  FM020300 21005KT P6SM SKC


Raw METAR
KPRC 012253Z 35008KT 10SM CLR 10/M07 A3011 RMK AO2 SLP184 T01001067
KPRC 012153Z 34009KT 10SM CLR 11/M07 A3010 RMK AO2 SLP179 T01061072
KPRC 012053Z 34007KT 10SM CLR 09/M07 A3011 RMK AO2 SLP182 T00941072 58018

METAR Board
Radar Display
Forecast Discussion

For situational awareness. Not to be used for flight planning purposes.